Lakeside, CT (06758)

1:31 AM EST on February 22, 2017 (GMT -0500)
Burgess Road | | Change Station

Elev 840 ft 41.70 °N, 73.25 °W | Updated 1 minute ago

Mostly Cloudy
Mostly Cloudy
37.0 °F
Feels Like 37 °F
N
2.0
Wind Variable Wind from NW
Gusts 5.0 mph

Today
High -- | Low -- °F
--% Chance of Precip.
Yesterday
High -- | Low -- °F
Precip. -- in
Pressure 30.07 in
Visibility 10.0 miles
Clouds Overcast 10000 ft
Windchill 37 °F
Dew Point 33 °F
Humidity 85%
Rainfall 0.00 in
Snow Depth Not available.
6:38 AM 5:35 PM
Waning Crescent, 19% visible
METAR KOXC 220615Z AUTO 20003KT 10SM OVC100 03/M02 A3007 RMK AO1
Pressure 30.07 in
Visibility 10.0 miles
Clouds Overcast 10000 ft
Windchill 37 °F
Dew Point 33 °F
Humidity 85%
Rainfall 0.00 in
Snow Depth Not available.
6:38 AM 5:35 PM
Waning Crescent, 19% visible
METAR KOXC 220615Z AUTO 20003KT 10SM OVC100 03/M02 A3007 RMK AO1

Get Your Daily Forecast Email!

Thanks for signing up!

Be on the lookout for a verification email in your inbox.

You'll start receiving the daily forecast at 8 AM.

×

10-Day Weather Forecast

Almanac

Astronomy

Feb. 22, 2017 Rise Set
Actual Time
Civil Twilight
Nautical Twilight
Astronomical Twilight
Moon
Length of Visible Light
Length of Day
Tomorrow will be .
, % of the Moon is Illuminated

Today's Extremes

State Highs State Lows

Community

WunderPhotos

Upload Photos

1,962,540 photos uploaded!

WunderBlog® & News

Nearby

Air Quality

  Air Quality AQ Index Pollutant
Not available.

Snow Depth

Station Depth Elevation

Earthquake Activity

City Distance Mag. Time & Date
Minimum magnitude displayed is 2.5.

Coastal Water Temperatures

Place Temperature

Stations

Nearby Weather Stations

Station Location Temp. Windchill Dew Point Humidity Wind Precip. Elev Updated Type
                   

Watches & Warnings

There are currently no watches in effect.